sensor_id;sensor_type;location;lat;lon;timestamp;P1;durP1;ratioP1;P2;durP2;ratioP2
22298;SDS011;11317;51.072;17.036;2022-09-24T00:00:41;19.63;;;11.15;;
22298;SDS011;11317;51.072;17.036;2022-09-24T00:03:06;23.70;;;11.18;;
22298;SDS011;11317;51.072;17.036;2022-09-24T00:05:38;23.08;;;11.82;;
22298;SDS011;11317;51.072;17.036;2022-09-24T00:08:06;20.95;;;10.98;;
22298;SDS011;11317;51.072;17.036;2022-09-24T00:10:38;19.65;;;10.77;;
22298;SDS011;11317;51.072;17.036;2022-09-24T00:13:06;19.73;;;10.82;;
22298;SDS011;11317;51.072;17.036;2022-09-24T00:15:46;18.38;;;11.43;;
22298;SDS011;11317;51.072;17.036;2022-09-24T00:18:14;19.33;;;10.90;;
22298;SDS011;11317;51.072;17.036;2022-09-24T00:20:41;19.48;;;10.88;;
22298;SDS011;11317;51.072;17.036;2022-09-24T00:23:08;19.02;;;11.05;;
22298;SDS011;11317;51.072;17.036;2022-09-24T00:25:44;20.08;;;10.18;;
22298;SDS011;11317;51.072;17.036;2022-09-24T00:30:55;19.52;;;10.50;;
22298;SDS011;11317;51.072;17.036;2022-09-24T00:33:26;20.42;;;10.35;;
22298;SDS011;11317;51.072;17.036;2022-09-24T00:35:52;20.95;;;11.63;;
22298;SDS011;11317;51.072;17.036;2022-09-24T00:38:18;18.00;;;9.88;;
22298;SDS011;11317;51.072;17.036;2022-09-24T00:40:44;22.20;;;11.25;;
22298;SDS011;11317;51.072;17.036;2022-09-24T00:43:23;19.33;;;11.30;;
22298;SDS011;11317;51.072;17.036;2022-09-24T00:45:55;23.10;;;11.25;;
22298;SDS011;11317;51.072;17.036;2022-09-24T00:48:42;17.42;;;10.77;;
22298;SDS011;11317;51.072;17.036;2022-09-24T00:51:11;18.35;;;9.82;;
22298;SDS011;11317;51.072;17.036;2022-09-24T00:53:40;22.23;;;12.18;;
22298;SDS011;11317;51.072;17.036;2022-09-24T00:56:07;21.05;;;11.23;;
22298;SDS011;11317;51.072;17.036;2022-09-24T00:58:35;22.58;;;11.30;;
22298;SDS011;11317;51.072;17.036;2022-09-24T01:01:03;23.20;;;11.75;;
22298;SDS011;11317;51.072;17.036;2022-09-24T01:03:31;20.50;;;10.50;;
22298;SDS011;11317;51.072;17.036;2022-09-24T01:06:04;19.98;;;10.55;;
22298;SDS011;11317;51.072;17.036;2022-09-24T01:08:31;23.52;;;11.38;;
22298;SDS011;11317;51.072;17.036;2022-09-24T01:16:45;18.00;;;10.95;;
22298;SDS011;11317;51.072;17.036;2022-09-24T01:19:22;20.57;;;10.27;;
22298;SDS011;11317;51.072;17.036;2022-09-24T01:21:55;21.88;;;10.90;;
22298;SDS011;11317;51.072;17.036;2022-09-24T01:24:34;17.73;;;10.70;;
22298;SDS011;11317;51.072;17.036;2022-09-24T01:27:15;20.23;;;10.00;;
22298;SDS011;11317;51.072;17.036;2022-09-24T01:29:55;19.23;;;10.55;;
22298;SDS011;11317;51.072;17.036;2022-09-24T01:32:29;18.25;;;10.38;;
22298;SDS011;11317;51.072;17.036;2022-09-24T01:37:40;16.08;;;10.45;;
22298;SDS011;11317;51.072;17.036;2022-09-24T01:40:09;18.02;;;10.48;;
22298;SDS011;11317;51.072;17.036;2022-09-24T01:42:36;18.23;;;9.93;;
22298;SDS011;11317;51.072;17.036;2022-09-24T01:45:06;18.20;;;10.68;;
22298;SDS011;11317;51.072;17.036;2022-09-24T01:47:34;16.88;;;10.23;;
22298;SDS011;11317;51.072;17.036;2022-09-24T01:50:03;18.10;;;10.85;;
22298;SDS011;11317;51.072;17.036;2022-09-24T01:52:30;17.17;;;10.75;;
22298;SDS011;11317;51.072;17.036;2022-09-24T01:55:02;17.83;;;10.05;;
22298;SDS011;11317;51.072;17.036;2022-09-24T01:57:37;19.70;;;11.02;;
22298;SDS011;11317;51.072;17.036;2022-09-24T02:00:08;20.77;;;10.50;;
22298;SDS011;11317;51.072;17.036;2022-09-24T02:02:44;20.98;;;10.93;;
22298;SDS011;11317;51.072;17.036;2022-09-24T02:05:24;17.15;;;10.20;;
22298;SDS011;11317;51.072;17.036;2022-09-24T02:08:04;19.40;;;10.55;;
22298;SDS011;11317;51.072;17.036;2022-09-24T02:10:58;20.80;;;10.43;;
22298;SDS011;11317;51.072;17.036;2022-09-24T02:13:25;18.38;;;10.57;;
22298;SDS011;11317;51.072;17.036;2022-09-24T02:16:01;21.23;;;10.45;;
22298;SDS011;11317;51.072;17.036;2022-09-24T02:18:32;18.65;;;10.10;;
22298;SDS011;11317;51.072;17.036;2022-09-24T02:21:00;17.05;;;10.43;;
22298;SDS011;11317;51.072;17.036;2022-09-24T02:23:30;17.20;;;9.75;;
22298;SDS011;11317;51.072;17.036;2022-09-24T02:26:01;18.65;;;10.05;;
22298;SDS011;11317;51.072;17.036;2022-09-24T02:28:27;20.27;;;10.93;;
22298;SDS011;11317;51.072;17.036;2022-09-24T02:30:55;21.15;;;10.75;;
22298;SDS011;11317;51.072;17.036;2022-09-24T02:33:26;19.20;;;10.77;;
22298;SDS011;11317;51.072;17.036;2022-09-24T02:36:13;18.90;;;11.00;;
22298;SDS011;11317;51.072;17.036;2022-09-24T02:38:38;20.85;;;10.05;;
22298;SDS011;11317;51.072;17.036;2022-09-24T02:41:04;22.35;;;10.80;;
22298;SDS011;11317;51.072;17.036;2022-09-24T02:43:33;21.75;;;10.90;;
22298;SDS011;11317;51.072;17.036;2022-09-24T02:46:00;18.38;;;10.27;;
22298;SDS011;11317;51.072;17.036;2022-09-24T02:48:26;23.40;;;11.18;;
22298;SDS011;11317;51.072;17.036;2022-09-24T02:50:52;18.77;;;10.50;;
22298;SDS011;11317;51.072;17.036;2022-09-24T02:53:18;18.65;;;10.65;;
22298;SDS011;11317;51.072;17.036;2022-09-24T02:55:44;18.58;;;10.50;;
22298;SDS011;11317;51.072;17.036;2022-09-24T02:58:10;19.17;;;10.40;;
22298;SDS011;11317;51.072;17.036;2022-09-24T03:00:36;19.52;;;10.27;;
22298;SDS011;11317;51.072;17.036;2022-09-24T03:03:02;18.25;;;10.25;;
22298;SDS011;11317;51.072;17.036;2022-09-24T03:05:28;15.65;;;10.23;;
22298;SDS011;11317;51.072;17.036;2022-09-24T03:07:54;17.02;;;9.88;;
22298;SDS011;11317;51.072;17.036;2022-09-24T03:10:22;20.23;;;9.90;;
22298;SDS011;11317;51.072;17.036;2022-09-24T03:12:48;17.25;;;9.73;;
22298;SDS011;11317;51.072;17.036;2022-09-24T03:15:14;15.20;;;9.18;;
22298;SDS011;11317;51.072;17.036;2022-09-24T03:17:40;15.32;;;9.15;;
22298;SDS011;11317;51.072;17.036;2022-09-24T03:20:06;17.90;;;9.68;;
22298;SDS011;11317;51.072;17.036;2022-09-24T03:22:32;16.13;;;9.32;;
22298;SDS011;11317;51.072;17.036;2022-09-24T03:24:59;22.08;;;10.30;;
22298;SDS011;11317;51.072;17.036;2022-09-24T03:27:27;19.15;;;10.00;;
22298;SDS011;11317;51.072;17.036;2022-09-24T03:29:53;15.13;;;9.80;;
22298;SDS011;11317;51.072;17.036;2022-09-24T03:32:37;17.70;;;9.93;;
22298;SDS011;11317;51.072;17.036;2022-09-24T03:35:03;17.45;;;10.00;;
22298;SDS011;11317;51.072;17.036;2022-09-24T03:37:29;14.43;;;8.77;;
22298;SDS011;11317;51.072;17.036;2022-09-24T03:39:56;17.30;;;9.05;;
22298;SDS011;11317;51.072;17.036;2022-09-24T03:42:22;15.50;;;9.75;;
22298;SDS011;11317;51.072;17.036;2022-09-24T03:44:48;16.92;;;9.85;;
22298;SDS011;11317;51.072;17.036;2022-09-24T03:47:14;17.25;;;9.75;;
22298;SDS011;11317;51.072;17.036;2022-09-24T03:49:40;16.88;;;10.38;;
22298;SDS011;11317;51.072;17.036;2022-09-24T03:52:06;16.38;;;9.20;;
22298;SDS011;11317;51.072;17.036;2022-09-24T03:54:32;23.33;;;10.38;;
22298;SDS011;11317;51.072;17.036;2022-09-24T03:56:58;18.58;;;10.57;;
22298;SDS011;11317;51.072;17.036;2022-09-24T03:59:24;17.65;;;9.75;;
22298;SDS011;11317;51.072;17.036;2022-09-24T04:01:50;18.67;;;10.25;;
22298;SDS011;11317;51.072;17.036;2022-09-24T04:04:16;16.05;;;9.80;;
22298;SDS011;11317;51.072;17.036;2022-09-24T04:06:42;17.08;;;10.02;;
22298;SDS011;11317;51.072;17.036;2022-09-24T04:09:08;17.67;;;9.63;;
22298;SDS011;11317;51.072;17.036;2022-09-24T04:11:34;17.10;;;9.40;;
22298;SDS011;11317;51.072;17.036;2022-09-24T04:14:00;15.80;;;8.95;;
22298;SDS011;11317;51.072;17.036;2022-09-24T04:16:26;17.98;;;9.85;;
22298;SDS011;11317;51.072;17.036;2022-09-24T04:18:52;15.00;;;9.32;;
22298;SDS011;11317;51.072;17.036;2022-09-24T04:21:20;18.58;;;10.15;;
22298;SDS011;11317;51.072;17.036;2022-09-24T04:23:46;17.77;;;9.95;;
22298;SDS011;11317;51.072;17.036;2022-09-24T04:26:12;17.48;;;8.93;;
22298;SDS011;11317;51.072;17.036;2022-09-24T04:28:39;17.88;;;8.65;;
22298;SDS011;11317;51.072;17.036;2022-09-24T04:31:04;15.57;;;10.10;;
22298;SDS011;11317;51.072;17.036;2022-09-24T04:33:30;14.10;;;9.48;;
22298;SDS011;11317;51.072;17.036;2022-09-24T04:35:56;18.30;;;10.20;;
22298;SDS011;11317;51.072;17.036;2022-09-24T04:38:22;17.80;;;10.25;;
22298;SDS011;11317;51.072;17.036;2022-09-24T04:40:48;16.05;;;9.25;;
22298;SDS011;11317;51.072;17.036;2022-09-24T04:43:14;14.30;;;8.77;;
22298;SDS011;11317;51.072;17.036;2022-09-24T04:45:43;17.38;;;9.88;;
22298;SDS011;11317;51.072;17.036;2022-09-24T04:48:10;21.98;;;10.15;;
22298;SDS011;11317;51.072;17.036;2022-09-24T04:50:36;17.75;;;9.93;;
22298;SDS011;11317;51.072;17.036;2022-09-24T04:53:03;20.50;;;10.35;;
22298;SDS011;11317;51.072;17.036;2022-09-24T04:55:29;16.92;;;9.38;;
22298;SDS011;11317;51.072;17.036;2022-09-24T04:57:56;17.60;;;10.40;;
22298;SDS011;11317;51.072;17.036;2022-09-24T05:00:22;16.45;;;9.32;;
22298;SDS011;11317;51.072;17.036;2022-09-24T05:02:55;17.90;;;9.38;;
22298;SDS011;11317;51.072;17.036;2022-09-24T05:05:27;17.05;;;10.07;;
22298;SDS011;11317;51.072;17.036;2022-09-24T05:07:53;19.13;;;9.77;;
22298;SDS011;11317;51.072;17.036;2022-09-24T05:10:23;13.27;;;8.18;;
22298;SDS011;11317;51.072;17.036;2022-09-24T05:12:50;12.38;;;9.05;;
22298;SDS011;11317;51.072;17.036;2022-09-24T05:15:16;19.42;;;10.38;;
22298;SDS011;11317;51.072;17.036;2022-09-24T05:17:44;12.80;;;9.02;;
22298;SDS011;11317;51.072;17.036;2022-09-24T05:20:10;15.38;;;9.65;;
22298;SDS011;11317;51.072;17.036;2022-09-24T05:22:42;16.15;;;10.07;;
22298;SDS011;11317;51.072;17.036;2022-09-24T05:25:09;17.10;;;10.30;;
22298;SDS011;11317;51.072;17.036;2022-09-24T05:27:36;17.10;;;9.35;;
22298;SDS011;11317;51.072;17.036;2022-09-24T05:30:02;17.42;;;9.98;;
22298;SDS011;11317;51.072;17.036;2022-09-24T05:32:30;18.02;;;9.30;;
22298;SDS011;11317;51.072;17.036;2022-09-24T05:34:58;17.95;;;9.90;;
22298;SDS011;11317;51.072;17.036;2022-09-24T05:37:23;16.88;;;9.20;;
22298;SDS011;11317;51.072;17.036;2022-09-24T05:39:49;14.65;;;9.13;;
22298;SDS011;11317;51.072;17.036;2022-09-24T05:42:15;15.90;;;8.82;;
22298;SDS011;11317;51.072;17.036;2022-09-24T05:44:41;22.75;;;9.15;;
22298;SDS011;11317;51.072;17.036;2022-09-24T05:47:07;17.15;;;9.45;;
22298;SDS011;11317;51.072;17.036;2022-09-24T05:49:33;15.07;;;9.27;;
22298;SDS011;11317;51.072;17.036;2022-09-24T05:51:59;15.43;;;9.85;;
22298;SDS011;11317;51.072;17.036;2022-09-24T05:54:26;13.73;;;8.75;;
22298;SDS011;11317;51.072;17.036;2022-09-24T05:56:52;14.25;;;8.23;;
22298;SDS011;11317;51.072;17.036;2022-09-24T05:59:18;14.35;;;8.35;;
22298;SDS011;11317;51.072;17.036;2022-09-24T06:01:43;12.55;;;7.47;;
22298;SDS011;11317;51.072;17.036;2022-09-24T06:04:09;16.42;;;8.20;;
22298;SDS011;11317;51.072;17.036;2022-09-24T06:06:36;12.13;;;8.07;;
22298;SDS011;11317;51.072;17.036;2022-09-24T06:09:02;11.57;;;8.05;;
22298;SDS011;11317;51.072;17.036;2022-09-24T06:11:30;14.48;;;7.88;;
22298;SDS011;11317;51.072;17.036;2022-09-24T06:13:59;12.13;;;8.57;;
22298;SDS011;11317;51.072;17.036;2022-09-24T06:16:27;14.07;;;7.70;;
22298;SDS011;11317;51.072;17.036;2022-09-24T06:18:53;14.82;;;8.13;;
22298;SDS011;11317;51.072;17.036;2022-09-24T06:21:18;13.45;;;8.07;;
22298;SDS011;11317;51.072;17.036;2022-09-24T06:23:45;11.35;;;7.53;;
22298;SDS011;11317;51.072;17.036;2022-09-24T06:26:12;12.85;;;7.57;;
22298;SDS011;11317;51.072;17.036;2022-09-24T06:28:38;12.50;;;7.68;;
22298;SDS011;11317;51.072;17.036;2022-09-24T06:31:04;13.88;;;7.13;;
22298;SDS011;11317;51.072;17.036;2022-09-24T06:33:30;11.68;;;7.32;;
22298;SDS011;11317;51.072;17.036;2022-09-24T06:36:00;11.40;;;6.55;;
22298;SDS011;11317;51.072;17.036;2022-09-24T06:38:27;12.00;;;6.82;;
22298;SDS011;11317;51.072;17.036;2022-09-24T06:40:57;12.10;;;7.00;;
22298;SDS011;11317;51.072;17.036;2022-09-24T06:43:24;12.95;;;7.57;;
22298;SDS011;11317;51.072;17.036;2022-09-24T06:45:53;10.43;;;6.95;;
22298;SDS011;11317;51.072;17.036;2022-09-24T06:48:20;7.57;;;5.88;;
22298;SDS011;11317;51.072;17.036;2022-09-24T06:50:46;10.35;;;6.07;;
22298;SDS011;11317;51.072;17.036;2022-09-24T06:53:12;10.13;;;6.25;;
22298;SDS011;11317;51.072;17.036;2022-09-24T06:55:38;8.93;;;5.63;;
22298;SDS011;11317;51.072;17.036;2022-09-24T06:58:05;10.05;;;6.15;;
22298;SDS011;11317;51.072;17.036;2022-09-24T07:00:35;10.55;;;6.00;;
22298;SDS011;11317;51.072;17.036;2022-09-24T07:03:02;8.63;;;5.68;;
22298;SDS011;11317;51.072;17.036;2022-09-24T07:05:29;9.90;;;5.32;;
22298;SDS011;11317;51.072;17.036;2022-09-24T07:07:55;9.02;;;5.35;;
22298;SDS011;11317;51.072;17.036;2022-09-24T07:10:20;7.00;;;4.50;;
22298;SDS011;11317;51.072;17.036;2022-09-24T07:12:49;6.97;;;4.78;;
22298;SDS011;11317;51.072;17.036;2022-09-24T07:15:15;6.70;;;4.70;;
22298;SDS011;11317;51.072;17.036;2022-09-24T07:17:41;8.82;;;4.57;;
22298;SDS011;11317;51.072;17.036;2022-09-24T07:20:07;5.93;;;4.28;;
22298;SDS011;11317;51.072;17.036;2022-09-24T07:22:37;7.90;;;4.18;;
22298;SDS011;11317;51.072;17.036;2022-09-24T07:25:05;6.13;;;4.05;;
22298;SDS011;11317;51.072;17.036;2022-09-24T07:27:32;6.45;;;4.15;;
22298;SDS011;11317;51.072;17.036;2022-09-24T07:29:58;8.18;;;3.50;;
22298;SDS011;11317;51.072;17.036;2022-09-24T07:32:24;6.38;;;3.60;;
22298;SDS011;11317;51.072;17.036;2022-09-24T07:34:50;6.15;;;3.72;;
22298;SDS011;11317;51.072;17.036;2022-09-24T07:37:18;5.47;;;3.60;;
22298;SDS011;11317;51.072;17.036;2022-09-24T07:39:44;6.57;;;4.28;;
22298;SDS011;11317;51.072;17.036;2022-09-24T07:42:10;7.13;;;3.85;;
22298;SDS011;11317;51.072;17.036;2022-09-24T07:44:35;8.23;;;3.53;;
22298;SDS011;11317;51.072;17.036;2022-09-24T07:47:02;5.60;;;3.90;;
22298;SDS011;11317;51.072;17.036;2022-09-24T07:49:28;6.13;;;3.30;;
22298;SDS011;11317;51.072;17.036;2022-09-24T07:51:56;5.53;;;3.75;;
22298;SDS011;11317;51.072;17.036;2022-09-24T07:54:22;5.88;;;4.28;;
22298;SDS011;11317;51.072;17.036;2022-09-24T07:56:48;5.72;;;3.80;;
22298;SDS011;11317;51.072;17.036;2022-09-24T07:59:14;5.72;;;3.30;;
22298;SDS011;11317;51.072;17.036;2022-09-24T08:01:40;4.85;;;3.30;;
22298;SDS011;11317;51.072;17.036;2022-09-24T08:04:06;4.70;;;3.08;;
22298;SDS011;11317;51.072;17.036;2022-09-24T08:06:35;4.97;;;3.13;;
22298;SDS011;11317;51.072;17.036;2022-09-24T08:09:01;5.82;;;2.97;;
22298;SDS011;11317;51.072;17.036;2022-09-24T08:11:27;5.28;;;3.08;;
22298;SDS011;11317;51.072;17.036;2022-09-24T08:13:57;6.68;;;3.20;;
22298;SDS011;11317;51.072;17.036;2022-09-24T08:16:23;3.13;;;2.65;;
22298;SDS011;11317;51.072;17.036;2022-09-24T08:18:50;4.28;;;3.13;;
22298;SDS011;11317;51.072;17.036;2022-09-24T08:21:16;4.00;;;2.90;;
22298;SDS011;11317;51.072;17.036;2022-09-24T08:23:42;5.22;;;3.03;;
22298;SDS011;11317;51.072;17.036;2022-09-24T08:26:12;5.63;;;3.13;;
22298;SDS011;11317;51.072;17.036;2022-09-24T08:28:38;4.47;;;3.05;;
22298;SDS011;11317;51.072;17.036;2022-09-24T08:31:06;3.00;;;2.58;;
22298;SDS011;11317;51.072;17.036;2022-09-24T08:33:35;3.63;;;2.78;;
22298;SDS011;11317;51.072;17.036;2022-09-24T08:36:03;6.32;;;2.67;;
22298;SDS011;11317;51.072;17.036;2022-09-24T08:38:32;3.55;;;3.00;;
22298;SDS011;11317;51.072;17.036;2022-09-24T08:43:59;4.15;;;2.58;;
22298;SDS011;11317;51.072;17.036;2022-09-24T08:46:38;3.50;;;2.92;;
22298;SDS011;11317;51.072;17.036;2022-09-24T08:52:11;4.38;;;2.88;;
22298;SDS011;11317;51.072;17.036;2022-09-24T08:54:48;4.45;;;2.58;;
22298;SDS011;11317;51.072;17.036;2022-09-24T08:57:16;5.20;;;2.70;;
22298;SDS011;11317;51.072;17.036;2022-09-24T08:59:46;6.97;;;2.70;;
22298;SDS011;11317;51.072;17.036;2022-09-24T09:10:33;3.17;;;1.95;;
22298;SDS011;11317;51.072;17.036;2022-09-24T09:15:34;4.82;;;2.17;;
22298;SDS011;11317;51.072;17.036;2022-09-24T09:18:22;3.22;;;2.05;;
22298;SDS011;11317;51.072;17.036;2022-09-24T09:20:49;2.50;;;1.80;;
22298;SDS011;11317;51.072;17.036;2022-09-24T09:23:19;2.75;;;2.30;;
22298;SDS011;11317;51.072;17.036;2022-09-24T09:25:56;2.35;;;1.90;;
22298;SDS011;11317;51.072;17.036;2022-09-24T09:28:27;3.47;;;1.98;;
22298;SDS011;11317;51.072;17.036;2022-09-24T09:31:15;3.78;;;2.10;;
22298;SDS011;11317;51.072;17.036;2022-09-24T09:36:55;3.00;;;1.70;;
22298;SDS011;11317;51.072;17.036;2022-09-24T09:42:23;3.47;;;2.00;;
22298;SDS011;11317;51.072;17.036;2022-09-24T09:44:54;2.70;;;1.73;;
22298;SDS011;11317;51.072;17.036;2022-09-24T09:53:21;3.00;;;2.03;;
22298;SDS011;11317;51.072;17.036;2022-09-24T09:55:54;2.30;;;2.10;;
22298;SDS011;11317;51.072;17.036;2022-09-24T09:58:22;4.15;;;2.10;;
22298;SDS011;11317;51.072;17.036;2022-09-24T10:00:50;3.47;;;2.10;;
22298;SDS011;11317;51.072;17.036;2022-09-24T10:06:13;4.18;;;1.80;;
22298;SDS011;11317;51.072;17.036;2022-09-24T10:08:49;3.17;;;1.73;;
22298;SDS011;11317;51.072;17.036;2022-09-24T10:11:16;2.58;;;1.88;;
22298;SDS011;11317;51.072;17.036;2022-09-24T10:13:44;2.95;;;2.10;;
22298;SDS011;11317;51.072;17.036;2022-09-24T10:16:11;3.08;;;2.03;;
22298;SDS011;11317;51.072;17.036;2022-09-24T10:18:46;2.45;;;1.88;;
22298;SDS011;11317;51.072;17.036;2022-09-24T10:21:14;2.78;;;2.00;;
22298;SDS011;11317;51.072;17.036;2022-09-24T10:23:58;4.57;;;2.20;;
22298;SDS011;11317;51.072;17.036;2022-09-24T10:26:36;3.15;;;1.85;;
22298;SDS011;11317;51.072;17.036;2022-09-24T10:29:04;3.28;;;1.90;;
22298;SDS011;11317;51.072;17.036;2022-09-24T10:31:54;1.60;;;1.50;;
22298;SDS011;11317;51.072;17.036;2022-09-24T10:34:25;4.60;;;1.92;;
22298;SDS011;11317;51.072;17.036;2022-09-24T10:36:55;1.60;;;1.45;;
22298;SDS011;11317;51.072;17.036;2022-09-24T10:39:36;3.10;;;1.90;;
22298;SDS011;11317;51.072;17.036;2022-09-24T10:42:02;4.03;;;2.00;;
22298;SDS011;11317;51.072;17.036;2022-09-24T10:44:33;2.67;;;2.35;;
22298;SDS011;11317;51.072;17.036;2022-09-24T11:01:22;3.20;;;2.00;;
22298;SDS011;11317;51.072;17.036;2022-09-24T11:06:46;2.92;;;1.80;;
22298;SDS011;11317;51.072;17.036;2022-09-24T11:09:38;1.98;;;1.77;;
22298;SDS011;11317;51.072;17.036;2022-09-24T11:12:22;7.28;;;2.13;;
22298;SDS011;11317;51.072;17.036;2022-09-24T11:31:21;3.45;;;1.80;;
22298;SDS011;11317;51.072;17.036;2022-09-24T11:34:04;2.72;;;1.58;;
22298;SDS011;11317;51.072;17.036;2022-09-24T11:45:44;2.53;;;1.75;;
22298;SDS011;11317;51.072;17.036;2022-09-24T11:48:37;5.45;;;2.20;;
22298;SDS011;11317;51.072;17.036;2022-09-24T11:54:19;2.00;;;1.83;;
22298;SDS011;11317;51.072;17.036;2022-09-24T11:57:15;2.85;;;1.92;;
22298;SDS011;11317;51.072;17.036;2022-09-24T12:02:22;3.00;;;1.75;;
22298;SDS011;11317;51.072;17.036;2022-09-24T12:10:32;4.13;;;2.00;;
22298;SDS011;11317;51.072;17.036;2022-09-24T12:15:42;2.22;;;1.85;;
22298;SDS011;11317;51.072;17.036;2022-09-24T12:18:15;3.30;;;1.70;;
22298;SDS011;11317;51.072;17.036;2022-09-24T12:20:50;2.83;;;2.20;;
22298;SDS011;11317;51.072;17.036;2022-09-24T12:23:22;4.32;;;1.83;;
22298;SDS011;11317;51.072;17.036;2022-09-24T12:25:52;3.15;;;1.80;;
22298;SDS011;11317;51.072;17.036;2022-09-24T12:28:20;3.13;;;2.10;;
22298;SDS011;11317;51.072;17.036;2022-09-24T12:31:41;1.95;;;1.67;;
22298;SDS011;11317;51.072;17.036;2022-09-24T12:37:15;2.13;;;1.63;;
22298;SDS011;11317;51.072;17.036;2022-09-24T12:39:57;1.77;;;1.65;;
22298;SDS011;11317;51.072;17.036;2022-09-24T12:42:52;2.55;;;2.00;;
22298;SDS011;11317;51.072;17.036;2022-09-24T12:45:21;3.42;;;1.90;;
22298;SDS011;11317;51.072;17.036;2022-09-24T12:47:49;2.45;;;2.08;;
22298;SDS011;11317;51.072;17.036;2022-09-24T12:50:21;1.95;;;1.60;;
22298;SDS011;11317;51.072;17.036;2022-09-24T12:52:51;1.88;;;1.77;;
22298;SDS011;11317;51.072;17.036;2022-09-24T12:55:26;1.88;;;1.58;;
22298;SDS011;11317;51.072;17.036;2022-09-24T12:57:58;2.13;;;1.92;;
22298;SDS011;11317;51.072;17.036;2022-09-24T13:00:40;3.50;;;2.00;;
22298;SDS011;11317;51.072;17.036;2022-09-24T13:06:01;2.00;;;1.77;;
22298;SDS011;11317;51.072;17.036;2022-09-24T13:09:21;4.50;;;1.80;;
22298;SDS011;11317;51.072;17.036;2022-09-24T13:11:59;2.80;;;1.83;;
22298;SDS011;11317;51.072;17.036;2022-09-24T13:14:45;1.73;;;1.42;;
22298;SDS011;11317;51.072;17.036;2022-09-24T13:17:13;2.97;;;1.85;;
22298;SDS011;11317;51.072;17.036;2022-09-24T13:19:43;2.15;;;1.70;;
22298;SDS011;11317;51.072;17.036;2022-09-24T13:27:39;2.25;;;1.77;;
22298;SDS011;11317;51.072;17.036;2022-09-24T13:32:53;2.08;;;1.52;;
22298;SDS011;11317;51.072;17.036;2022-09-24T13:35:23;1.63;;;1.42;;
22298;SDS011;11317;51.072;17.036;2022-09-24T13:37:55;1.90;;;1.60;;
22298;SDS011;11317;51.072;17.036;2022-09-24T13:40:47;1.83;;;1.38;;
22298;SDS011;11317;51.072;17.036;2022-09-24T13:43:18;1.60;;;1.50;;
22298;SDS011;11317;51.072;17.036;2022-09-24T13:45:57;1.50;;;1.40;;
22298;SDS011;11317;51.072;17.036;2022-09-24T13:48:37;2.25;;;1.67;;
22298;SDS011;11317;51.072;17.036;2022-09-24T13:51:12;1.65;;;1.55;;
22298;SDS011;11317;51.072;17.036;2022-09-24T13:53:43;3.08;;;1.75;;
22298;SDS011;11317;51.072;17.036;2022-09-24T13:56:16;2.67;;;1.50;;
22298;SDS011;11317;51.072;17.036;2022-09-24T13:58:43;2.42;;;1.70;;
22298;SDS011;11317;51.072;17.036;2022-09-24T14:03:52;1.73;;;1.55;;
22298;SDS011;11317;51.072;17.036;2022-09-24T14:06:28;1.88;;;1.40;;
22298;SDS011;11317;51.072;17.036;2022-09-24T14:09:01;2.75;;;1.92;;
22298;SDS011;11317;51.072;17.036;2022-09-24T14:11:27;2.17;;;1.80;;
22298;SDS011;11317;51.072;17.036;2022-09-24T14:13:53;2.50;;;1.85;;
22298;SDS011;11317;51.072;17.036;2022-09-24T14:16:24;2.75;;;1.80;;
22298;SDS011;11317;51.072;17.036;2022-09-24T14:21:51;1.80;;;1.55;;
22298;SDS011;11317;51.072;17.036;2022-09-24T14:26:53;1.70;;;1.53;;
22298;SDS011;11317;51.072;17.036;2022-09-24T14:32:29;2.40;;;1.20;;
22298;SDS011;11317;51.072;17.036;2022-09-24T14:37:48;1.60;;;1.50;;
22298;SDS011;11317;51.072;17.036;2022-09-24T14:40:18;1.35;;;1.25;;
22298;SDS011;11317;51.072;17.036;2022-09-24T14:42:46;2.42;;;1.60;;
22298;SDS011;11317;51.072;17.036;2022-09-24T14:45:23;1.90;;;1.70;;
22298;SDS011;11317;51.072;17.036;2022-09-24T14:48:05;2.78;;;1.75;;
22298;SDS011;11317;51.072;17.036;2022-09-24T14:50:40;2.13;;;1.58;;
22298;SDS011;11317;51.072;17.036;2022-09-24T14:55:44;3.40;;;1.73;;
22298;SDS011;11317;51.072;17.036;2022-09-24T15:01:15;3.88;;;2.00;;
22298;SDS011;11317;51.072;17.036;2022-09-24T15:06:30;1.70;;;1.60;;
22298;SDS011;11317;51.072;17.036;2022-09-24T15:11:25;2.33;;;1.50;;
22298;SDS011;11317;51.072;17.036;2022-09-24T15:14:11;2.60;;;1.73;;
22298;SDS011;11317;51.072;17.036;2022-09-24T15:16:49;1.50;;;1.40;;
22298;SDS011;11317;51.072;17.036;2022-09-24T15:19:17;2.90;;;1.75;;
22298;SDS011;11317;51.072;17.036;2022-09-24T15:21:51;1.60;;;1.50;;
22298;SDS011;11317;51.072;17.036;2022-09-24T15:24:20;1.40;;;1.30;;
22298;SDS011;11317;51.072;17.036;2022-09-24T15:26:48;3.05;;;1.55;;
22298;SDS011;11317;51.072;17.036;2022-09-24T15:29:28;2.42;;;1.52;;
22298;SDS011;11317;51.072;17.036;2022-09-24T15:31:54;3.20;;;1.45;;
22298;SDS011;11317;51.072;17.036;2022-09-24T15:34:21;1.40;;;1.30;;
22298;SDS011;11317;51.072;17.036;2022-09-24T15:36:47;1.70;;;1.60;;
22298;SDS011;11317;51.072;17.036;2022-09-24T15:39:19;2.10;;;1.58;;
22298;SDS011;11317;51.072;17.036;2022-09-24T15:41:53;2.13;;;1.60;;
22298;SDS011;11317;51.072;17.036;2022-09-24T15:44:20;1.73;;;1.58;;
22298;SDS011;11317;51.072;17.036;2022-09-24T15:46:48;2.85;;;1.65;;
22298;SDS011;11317;51.072;17.036;2022-09-24T15:49:17;1.65;;;1.42;;
22298;SDS011;11317;51.072;17.036;2022-09-24T15:51:49;2.00;;;1.80;;
22298;SDS011;11317;51.072;17.036;2022-09-24T15:54:19;3.53;;;2.30;;
22298;SDS011;11317;51.072;17.036;2022-09-24T15:56:52;2.22;;;1.75;;
22298;SDS011;11317;51.072;17.036;2022-09-24T15:59:18;2.35;;;1.60;;
22298;SDS011;11317;51.072;17.036;2022-09-24T16:01:46;1.90;;;1.75;;
22298;SDS011;11317;51.072;17.036;2022-09-24T16:04:16;1.75;;;1.45;;
22298;SDS011;11317;51.072;17.036;2022-09-24T16:06:42;1.65;;;1.38;;
22298;SDS011;11317;51.072;17.036;2022-09-24T16:09:07;2.08;;;1.42;;
22298;SDS011;11317;51.072;17.036;2022-09-24T16:11:33;1.50;;;1.40;;
22298;SDS011;11317;51.072;17.036;2022-09-24T16:13:59;1.85;;;1.50;;
22298;SDS011;11317;51.072;17.036;2022-09-24T16:16:25;1.70;;;1.50;;
22298;SDS011;11317;51.072;17.036;2022-09-24T16:18:51;3.00;;;1.80;;
22298;SDS011;11317;51.072;17.036;2022-09-24T16:21:17;2.92;;;1.58;;
22298;SDS011;11317;51.072;17.036;2022-09-24T16:23:43;2.30;;;1.70;;
22298;SDS011;11317;51.072;17.036;2022-09-24T16:26:09;2.22;;;1.67;;
22298;SDS011;11317;51.072;17.036;2022-09-24T16:28:36;3.40;;;2.00;;
22298;SDS011;11317;51.072;17.036;2022-09-24T16:31:05;11.73;;;4.35;;
22298;SDS011;11317;51.072;17.036;2022-09-24T16:33:31;6.68;;;3.80;;
22298;SDS011;11317;51.072;17.036;2022-09-24T16:36:05;7.05;;;3.13;;
22298;SDS011;11317;51.072;17.036;2022-09-24T16:38:35;6.65;;;4.30;;
22298;SDS011;11317;51.072;17.036;2022-09-24T16:41:03;9.00;;;3.40;;
22298;SDS011;11317;51.072;17.036;2022-09-24T16:43:31;10.05;;;5.00;;
22298;SDS011;11317;51.072;17.036;2022-09-24T16:46:05;7.32;;;4.28;;
22298;SDS011;11317;51.072;17.036;2022-09-24T16:48:35;8.18;;;4.75;;
22298;SDS011;11317;51.072;17.036;2022-09-24T16:51:03;15.63;;;8.13;;
22298;SDS011;11317;51.072;17.036;2022-09-24T16:53:32;22.63;;;9.75;;
22298;SDS011;11317;51.072;17.036;2022-09-24T16:58:32;17.02;;;7.72;;
22298;SDS011;11317;51.072;17.036;2022-09-24T17:00:58;17.23;;;7.00;;
22298;SDS011;11317;51.072;17.036;2022-09-24T17:03:27;12.88;;;6.28;;